Time;durP1;ratioP1;P1;durP2;ratioP2;P2;SDS_P1;SDS_P2;PMS_P1;PMS_P2;Temp;Humidity;BMP_temperature;BMP_pressure;BME280_temperature;BME280_humidity;BME280_pressure;Samples;Min_cycle;Max_cycle;Signal;HPM_P1;HPM_P2
2023/08/05 00:00:57;;;;;;;20.58;18.58;;;13.60;99.90;;;;;;5030810;28;20045;-68
2023/08/05 00:03:22;;;;;;;29.80;26.80;;;13.60;99.90;;;;;;5036921;28;20117;-67
2023/08/05 00:05:48;;;;;;;30.10;25.88;;;13.60;99.90;;;;;;5037382;28;20128;-68
2023/08/05 00:08:13;;;;;;;31.23;27.38;;;13.70;99.90;;;;;;5031767;28;20033;-67
2023/08/05 00:10:45;;;;;;;35.03;28.02;;;13.60;99.90;;;;;;5038116;28;20536;-67
2023/08/05 00:13:12;;;;;;;36.38;25.73;;;13.70;99.90;;;;;;5031568;28;20045;-68
2023/08/05 00:15:38;;;;;;;31.17;24.23;;;13.70;99.90;;;;;;5031560;28;20424;-68
2023/08/05 00:18:03;;;;;;;30.98;23.45;;;13.70;99.90;;;;;;5017331;28;20069;-69
2023/08/05 00:20:29;;;;;;;28.70;23.05;;;13.80;99.90;;;;;;5046196;28;20117;-68
2023/08/05 00:22:55;;;;;;;24.88;17.67;;;13.80;99.90;;;;;;5037570;28;20072;-68
2023/08/05 00:25:20;;;;;;;20.52;13.40;;;13.80;99.90;;;;;;5029836;28;20152;-68
2023/08/05 00:27:46;;;;;;;14.68;10.73;;;13.80;99.90;;;;;;5058775;28;20049;-68
2023/08/05 00:30:11;;;;;;;12.60;9.63;;;13.80;99.90;;;;;;5029158;28;20057;-68
2023/08/05 00:32:37;;;;;;;21.15;13.75;;;13.80;99.90;;;;;;5039532;28;20136;-69
2023/08/05 00:35:05;;;;;;;28.13;20.10;;;13.70;99.90;;;;;;5032567;28;20050;-67
2023/08/05 00:37:31;;;;;;;39.97;25.65;;;13.80;99.90;;;;;;5031136;28;20048;-69
2023/08/05 00:39:57;;;;;;;25.63;19.80;;;13.80;99.90;;;;;;5033240;28;20449;-68
2023/08/05 00:42:23;;;;;;;20.48;14.55;;;13.80;99.90;;;;;;5034659;28;20055;-69
2023/08/05 00:44:48;;;;;;;16.13;11.10;;;13.80;99.90;;;;;;5047684;28;20037;-68
2023/08/05 00:47:17;;;;;;;14.10;10.10;;;13.80;99.90;;;;;;5065690;28;20475;-68
2023/08/05 00:49:45;;;;;;;13.27;7.18;;;13.80;99.90;;;;;;5046498;28;20044;-68
2023/08/05 00:52:13;;;;;;;10.57;6.22;;;13.80;99.90;;;;;;5045064;28;20094;-67
2023/08/05 00:54:40;;;;;;;10.20;5.80;;;13.70;99.90;;;;;;5030145;28;20055;-69
2023/08/05 00:57:06;;;;;;;9.23;5.95;;;13.70;99.90;;;;;;5046668;28;20115;-68
2023/08/05 00:59:31;;;;;;;12.05;7.78;;;13.70;99.90;;;;;;5042359;28;20041;-68
2023/08/05 01:01:57;;;;;;;15.57;9.65;;;13.70;99.90;;;;;;5033420;28;20030;-68
2023/08/05 01:04:23;;;;;;;13.35;8.45;;;13.70;99.90;;;;;;5044484;28;20087;-67
2023/08/05 01:06:50;;;;;;;12.82;8.30;;;13.60;99.90;;;;;;5037583;28;20037;-68
2023/08/05 01:09:16;;;;;;;13.80;8.15;;;13.70;99.90;;;;;;5044721;28;20045;-68
2023/08/05 01:11:42;;;;;;;12.02;8.32;;;13.70;99.90;;;;;;5042241;28;20046;-68
2023/08/05 01:14:07;;;;;;;13.00;8.35;;;13.70;99.90;;;;;;5032123;28;20095;-68
2023/08/05 01:16:33;;;;;;;13.18;8.07;;;13.70;99.90;;;;;;5032815;28;20037;-67
2023/08/05 01:19:00;;;;;;;16.60;9.07;;;13.70;99.90;;;;;;5044104;28;20066;-68
2023/08/05 01:21:56;;;;;;;18.15;9.40;;;13.70;99.90;;;;;;5043146;28;20041;-68
2023/08/05 01:24:32;;;;;;;14.77;7.50;;;13.80;99.90;;;;;;5027821;28;20628;-68
2023/08/05 01:26:58;;;;;;;14.50;7.10;;;13.80;99.90;;;;;;5011094;28;20445;-68
2023/08/05 01:29:23;;;;;;;24.23;12.15;;;13.80;99.90;;;;;;5035965;28;20044;-68
2023/08/05 01:31:52;;;;;;;33.83;24.15;;;13.80;99.90;;;;;;5041503;28;20338;-68
2023/08/05 01:34:18;;;;;;;32.05;24.85;;;13.80;99.90;;;;;;5034253;28;20049;-69
2023/08/05 01:36:44;;;;;;;17.92;13.55;;;13.80;99.90;;;;;;5044555;28;20042;-68
2023/08/05 01:39:09;;;;;;;14.95;8.65;;;13.80;99.90;;;;;;5044616;28;20441;-68
2023/08/05 01:41:35;;;;;;;11.25;6.88;;;13.80;99.90;;;;;;5034773;28;20025;-68
2023/08/05 01:44:01;;;;;;;25.55;16.55;;;13.80;99.90;;;;;;5037647;28;20086;-67
2023/08/05 01:46:26;;;;;;;18.40;9.73;;;13.80;99.90;;;;;;5036569;28;20120;-68
2023/08/05 01:48:52;;;;;;;29.75;22.15;;;13.80;99.90;;;;;;5027936;28;20041;-67
2023/08/05 01:51:17;;;;;;;52.03;33.50;;;13.80;99.90;;;;;;5042422;28;20061;-69
2023/08/05 01:53:43;;;;;;;88.38;53.10;;;13.80;99.90;;;;;;5027245;28;20060;-68
2023/08/05 01:56:09;;;;;;;99.45;58.22;;;13.80;99.90;;;;;;5036401;28;20037;-68
2023/08/05 01:58:34;;;;;;;124.85;66.53;;;13.80;99.90;;;;;;5041896;28;20083;-69
2023/08/05 02:01:00;;;;;;;37.10;19.70;;;13.80;99.90;;;;;;5027486;28;20037;-68
2023/08/05 02:03:25;;;;;;;20.55;9.57;;;13.80;99.90;;;;;;5035310;28;20114;-67
2023/08/05 02:05:51;;;;;;;14.75;7.53;;;13.70;99.90;;;;;;5028766;28;20049;-68
2023/08/05 02:08:16;;;;;;;14.70;7.40;;;13.70;99.90;;;;;;5030970;28;20037;-67
2023/08/05 02:10:42;;;;;;;17.10;8.52;;;13.70;99.90;;;;;;5033669;28;20036;-68
2023/08/05 02:13:08;;;;;;;22.75;11.18;;;13.70;99.90;;;;;;5028602;28;20045;-67
2023/08/05 02:15:33;;;;;;;34.45;17.65;;;13.60;99.90;;;;;;5024764;28;20136;-67
2023/08/05 02:17:59;;;;;;;24.50;13.73;;;13.60;99.90;;;;;;5033757;28;20049;-69
2023/08/05 02:20:25;;;;;;;28.42;14.15;;;13.50;99.90;;;;;;5030100;28;20041;-68
2023/08/05 02:22:50;;;;;;;31.25;17.08;;;13.50;99.90;;;;;;5028122;28;20055;-68
2023/08/05 02:25:16;;;;;;;25.02;11.20;;;13.40;99.90;;;;;;5032197;28;20044;-67
2023/08/05 02:27:41;;;;;;;19.00;9.73;;;13.30;99.90;;;;;;5034705;28;20365;-68
2023/08/05 02:30:08;;;;;;;16.85;8.70;;;13.30;99.90;;;;;;5040915;28;20095;-68
2023/08/05 02:32:34;;;;;;;19.38;9.50;;;13.20;99.90;;;;;;5040546;28;20041;-67
2023/08/05 02:34:59;;;;;;;19.05;10.07;;;13.00;99.90;;;;;;5047240;28;20248;-67
2023/08/05 02:37:25;;;;;;;13.60;6.03;;;13.10;99.90;;;;;;5049828;28;20040;-68
2023/08/05 02:39:51;;;;;;;7.13;4.13;;;13.00;99.90;;;;;;5064322;28;20037;-68
2023/08/05 02:42:16;;;;;;;9.30;5.15;;;13.00;99.90;;;;;;5049813;28;20033;-68
2023/08/05 02:44:42;;;;;;;12.52;7.00;;;13.00;99.90;;;;;;5030281;28;20326;-68
2023/08/05 02:47:07;;;;;;;8.88;4.30;;;13.00;99.90;;;;;;5031939;28;20465;-68
2023/08/05 02:49:35;;;;;;;7.68;3.38;;;12.90;99.90;;;;;;5045127;28;20049;-68
2023/08/05 02:52:01;;;;;;;8.15;3.30;;;12.80;99.90;;;;;;5028202;28;20408;-68
2023/08/05 02:54:27;;;;;;;8.68;3.42;;;12.90;99.90;;;;;;5027736;28;20045;-67
2023/08/05 02:56:53;;;;;;;5.72;3.08;;;12.90;99.90;;;;;;5028192;28;20118;-69
2023/08/05 02:59:18;;;;;;;6.68;2.95;;;12.90;99.90;;;;;;5033156;28;20048;-68
2023/08/05 03:01:44;;;;;;;6.07;3.30;;;13.00;99.90;;;;;;5039046;28;20071;-68
2023/08/05 03:04:10;;;;;;;5.70;3.40;;;13.00;99.90;;;;;;5042440;28;20041;-68
2023/08/05 03:06:35;;;;;;;6.35;3.58;;;13.00;99.90;;;;;;5011104;28;20046;-67
2023/08/05 03:09:01;;;;;;;8.57;3.58;;;12.90;99.90;;;;;;5058757;28;20139;-67
2023/08/05 03:11:30;;;;;;;8.57;4.15;;;13.00;99.90;;;;;;5030094;28;20037;-68
2023/08/05 03:13:56;;;;;;;7.05;3.47;;;12.80;99.90;;;;;;5029564;28;22775;-67
2023/08/05 03:16:25;;;;;;;9.00;4.18;;;12.90;99.90;;;;;;5040132;28;20047;-68
2023/08/05 03:18:51;;;;;;;6.63;3.50;;;12.80;99.90;;;;;;5041213;28;20041;-67
2023/08/05 03:21:16;;;;;;;10.25;4.22;;;12.80;99.90;;;;;;5041885;28;20401;-68
2023/08/05 03:23:42;;;;;;;7.50;4.00;;;12.70;99.90;;;;;;5049079;28;20120;-66
2023/08/05 03:26:08;;;;;;;9.52;3.83;;;12.70;99.90;;;;;;5031551;28;20145;-67
2023/08/05 03:28:33;;;;;;;6.15;3.42;;;12.70;99.90;;;;;;5040854;28;20044;-68
2023/08/05 03:30:59;;;;;;;6.85;4.15;;;12.70;99.90;;;;;;5047307;28;20041;-67
2023/08/05 03:33:25;;;;;;;6.32;3.85;;;12.70;99.90;;;;;;5042964;28;20051;-68
2023/08/05 03:35:54;;;;;;;7.13;3.45;;;12.70;99.90;;;;;;5031546;28;20041;-67
2023/08/05 03:38:20;;;;;;;6.57;4.28;;;12.80;99.90;;;;;;5039221;28;20067;-68
2023/08/05 03:40:48;;;;;;;6.53;3.60;;;12.80;99.90;;;;;;5031705;28;20033;-68
2023/08/05 03:43:14;;;;;;;8.27;4.43;;;12.90;99.90;;;;;;5031852;28;20034;-68
2023/08/05 03:45:39;;;;;;;8.68;4.10;;;12.90;99.90;;;;;;5055486;28;20124;-67
2023/08/05 03:48:05;;;;;;;8.20;4.60;;;12.90;99.90;;;;;;5063638;28;20068;-67
2023/08/05 03:50:31;;;;;;;6.95;3.80;;;12.90;99.90;;;;;;5050439;28;22138;-67
2023/08/05 03:52:57;;;;;;;10.05;4.63;;;12.90;99.90;;;;;;5057362;28;20048;-68
2023/08/05 03:55:23;;;;;;;12.57;4.38;;;13.00;99.90;;;;;;5033925;28;20857;-68
2023/08/05 03:57:49;;;;;;;8.40;4.00;;;13.00;99.90;;;;;;5050643;28;20131;-67
2023/08/05 04:00:15;;;;;;;8.85;4.15;;;13.00;99.90;;;;;;5041374;28;20034;-67
2023/08/05 04:02:41;;;;;;;7.60;4.05;;;12.90;99.90;;;;;;5045225;28;20090;-67
2023/08/05 04:05:07;;;;;;;7.60;3.75;;;12.90;99.90;;;;;;5044145;28;20069;-67
2023/08/05 04:07:33;;;;;;;9.57;4.35;;;12.90;99.90;;;;;;5061781;28;20108;-67
2023/08/05 04:09:59;;;;;;;7.65;3.60;;;12.90;99.90;;;;;;5046321;28;20044;-67
2023/08/05 04:12:26;;;;;;;8.30;3.88;;;12.90;99.90;;;;;;5049744;28;20041;-68
2023/08/05 04:14:52;;;;;;;7.68;3.55;;;12.90;99.90;;;;;;5046895;28;20051;-66
2023/08/05 04:17:19;;;;;;;5.80;4.10;;;12.90;99.90;;;;;;5039870;28;20041;-67
2023/08/05 04:19:46;;;;;;;5.80;3.13;;;12.90;99.90;;;;;;5031570;28;20107;-67
2023/08/05 04:22:12;;;;;;;8.52;3.65;;;12.90;99.90;;;;;;5047485;28;20036;-67
2023/08/05 04:24:39;;;;;;;5.55;3.67;;;12.90;99.90;;;;;;5054569;28;20551;-67
2023/08/05 04:27:05;;;;;;;7.65;3.65;;;12.90;99.90;;;;;;5031549;28;20051;-68
2023/08/05 04:29:30;;;;;;;6.32;3.42;;;13.00;99.90;;;;;;5040983;28;20045;-67
2023/08/05 04:31:57;;;;;;;6.03;3.65;;;13.00;99.90;;;;;;5039444;28;20117;-68
2023/08/05 04:34:22;;;;;;;11.20;3.55;;;13.00;99.90;;;;;;5023817;28;20091;-68
2023/08/05 04:36:50;;;;;;;7.30;3.50;;;13.00;99.90;;;;;;5041045;28;20049;-67
2023/08/05 04:39:19;;;;;;;7.72;3.72;;;13.00;99.90;;;;;;5042528;28;20131;-68
2023/08/05 04:41:45;;;;;;;7.18;3.65;;;13.00;99.90;;;;;;5057469;28;20086;-67
2023/08/05 04:44:11;;;;;;;7.18;3.67;;;13.00;99.90;;;;;;5039775;28;20045;-67
2023/08/05 04:46:37;;;;;;;9.30;3.92;;;13.00;99.90;;;;;;5018154;28;20029;-67
2023/08/05 04:49:08;;;;;;;5.28;3.22;;;13.00;99.90;;;;;;5030427;28;20549;-67
2023/08/05 04:51:37;;;;;;;9.18;4.22;;;13.10;99.90;;;;;;5024614;28;20049;-67
2023/08/05 04:54:04;;;;;;;7.00;3.63;;;13.10;99.90;;;;;;5031953;28;20052;-67
2023/08/05 04:56:30;;;;;;;7.50;3.80;;;13.20;99.90;;;;;;5036829;28;20055;-67
2023/08/05 04:58:55;;;;;;;7.15;4.00;;;13.20;99.90;;;;;;5044167;28;20041;-67
2023/08/05 05:01:21;;;;;;;6.72;3.30;;;13.20;99.90;;;;;;5044220;28;20041;-68
2023/08/05 05:03:48;;;;;;;9.63;3.30;;;13.30;99.90;;;;;;5013202;28;20043;-68
2023/08/05 05:06:14;;;;;;;6.88;3.53;;;13.30;99.90;;;;;;5022361;28;20048;-68
2023/08/05 05:08:40;;;;;;;8.05;3.92;;;13.40;99.90;;;;;;5030122;28;20057;-68
2023/08/05 05:11:07;;;;;;;5.45;3.45;;;13.50;99.90;;;;;;5028134;28;20048;-68
2023/08/05 05:13:33;;;;;;;7.47;3.42;;;13.50;99.90;;;;;;5032523;28;20049;-67
2023/08/05 05:16:01;;;;;;;5.93;3.42;;;13.60;99.90;;;;;;5034368;28;20044;-68
2023/08/05 05:18:26;;;;;;;6.00;3.33;;;13.60;99.90;;;;;;5045267;28;20042;-68
2023/08/05 05:20:53;;;;;;;5.55;3.50;;;13.70;99.90;;;;;;5029087;28;20081;-67
2023/08/05 05:23:19;;;;;;;7.85;3.78;;;13.70;99.90;;;;;;5029270;28;20044;-68
2023/08/05 05:25:45;;;;;;;7.40;3.40;;;13.80;99.90;;;;;;5027853;28;20034;-68
2023/08/05 05:28:10;;;;;;;9.77;3.08;;;13.90;99.90;;;;;;5031244;28;20039;-68
2023/08/05 05:30:36;;;;;;;6.13;3.13;;;14.00;99.90;;;;;;5032461;28;20037;-68
2023/08/05 05:33:02;;;;;;;6.13;3.00;;;14.00;99.90;;;;;;5042620;28;20049;-68
2023/08/05 05:35:30;;;;;;;6.35;2.95;;;14.10;99.90;;;;;;5042374;28;20044;-68
2023/08/05 05:37:56;;;;;;;6.78;2.83;;;14.10;99.90;;;;;;5035297;28;20120;-67
2023/08/05 05:40:22;;;;;;;8.93;2.75;;;14.20;99.90;;;;;;5054905;28;20525;-67
2023/08/05 05:42:51;;;;;;;9.55;3.00;;;14.30;99.90;;;;;;5047814;28;20039;-68
2023/08/05 05:45:17;;;;;;;5.43;2.33;;;14.30;99.90;;;;;;5037947;28;20195;-67
2023/08/05 05:47:44;;;;;;;5.10;2.65;;;14.40;99.90;;;;;;5050364;28;20041;-68
2023/08/05 05:50:11;;;;;;;4.20;2.60;;;14.60;99.90;;;;;;5032626;28;20467;-69
2023/08/05 05:52:36;;;;;;;4.18;2.03;;;14.70;99.90;;;;;;5043108;28;20044;-71
2023/08/05 05:55:05;;;;;;;4.82;2.28;;;15.00;99.90;;;;;;5043963;28;20052;-70
2023/08/05 05:57:30;;;;;;;5.85;2.20;;;15.20;99.90;;;;;;5044451;28;20037;-68
2023/08/05 05:59:57;;;;;;;2.72;1.88;;;15.40;99.90;;;;;;5038345;28;20128;-69
2023/08/05 06:02:22;;;;;;;4.93;2.17;;;15.40;99.90;;;;;;5045902;28;20848;-68
2023/08/05 06:04:50;;;;;;;7.38;2.00;;;15.40;99.90;;;;;;5047028;28;20043;-70
2023/08/05 06:07:15;;;;;;;5.50;2.47;;;15.40;99.90;;;;;;5046755;28;20091;-71
2023/08/05 06:09:41;;;;;;;5.03;2.00;;;15.30;99.90;;;;;;5046447;28;20041;-70
2023/08/05 06:12:09;;;;;;;4.55;2.20;;;15.30;99.90;;;;;;5046540;28;20044;-68
2023/08/05 06:14:36;;;;;;;2.25;1.70;;;15.40;99.90;;;;;;5032004;28;20047;-68
2023/08/05 06:17:02;;;;;;;3.85;2.30;;;15.60;99.90;;;;;;5047133;28;20117;-70
2023/08/05 06:19:28;;;;;;;3.22;1.98;;;15.90;99.90;;;;;;5048514;28;20070;-70
2023/08/05 06:21:53;;;;;;;5.47;2.28;;;16.20;99.90;;;;;;5040458;28;20135;-68
2023/08/05 06:24:19;;;;;;;3.75;1.95;;;16.40;99.90;;;;;;5048819;28;20139;-71
2023/08/05 06:26:44;;;;;;;4.47;1.88;;;16.50;99.90;;;;;;5044437;28;20045;-70
2023/08/05 06:29:10;;;;;;;3.30;1.95;;;16.70;99.80;;;;;;5050232;28;20495;-71
2023/08/05 06:31:35;;;;;;;4.47;1.98;;;17.00;99.10;;;;;;5030348;28;20103;-70
2023/08/05 06:34:01;;;;;;;3.28;1.85;;;17.10;96.80;;;;;;5028102;28;20052;-69
2023/08/05 06:36:27;;;;;;;1.90;1.70;;;17.30;97.00;;;;;;5047755;28;20443;-71
2023/08/05 06:38:52;;;;;;;2.50;1.65;;;17.30;95.90;;;;;;5048947;28;20032;-70
2023/08/05 06:41:19;;;;;;;3.42;1.92;;;17.20;95.20;;;;;;5048139;28;20136;-70
2023/08/05 06:43:45;;;;;;;2.03;1.73;;;17.10;94.90;;;;;;5061832;28;20036;-69
2023/08/05 06:46:10;;;;;;;3.60;2.10;;;16.90;94.60;;;;;;5046074;28;20114;-73
2023/08/05 06:48:36;;;;;;;3.00;1.90;;;17.00;93.70;;;;;;5048220;28;20044;-73
2023/08/05 06:51:01;;;;;;;3.85;1.90;;;17.10;94.20;;;;;;5049447;28;20126;-70
2023/08/05 06:53:27;;;;;;;3.75;1.80;;;17.50;94.10;;;;;;5041807;28;20052;-71
2023/08/05 06:56:03;;;;;;;4.35;1.48;;;17.80;93.40;;;;;;5039268;28;20079;-71
2023/08/05 06:58:29;;;;;;;4.38;1.92;;;18.20;91.00;;;;;;5054450;28;20159;-69
2023/08/05 07:00:55;;;;;;;3.55;1.92;;;18.20;91.90;;;;;;5037418;28;20037;-71
2023/08/05 07:03:21;;;;;;;5.05;2.10;;;18.40;91.50;;;;;;5027819;28;20032;-70
2023/08/05 07:05:46;;;;;;;5.97;1.77;;;18.30;91.40;;;;;;5058874;28;20033;-70
2023/08/05 07:08:12;;;;;;;3.97;2.17;;;18.50;91.40;;;;;;5017240;28;20038;-74
2023/08/05 07:10:37;;;;;;;2.83;1.83;;;18.50;88.20;;;;;;5042946;28;20314;-71
2023/08/05 07:13:05;;;;;;;4.20;2.00;;;18.10;90.30;;;;;;5043170;28;20033;-70
2023/08/05 07:15:36;;;;;;;4.32;1.60;;;18.10;90.10;;;;;;5035697;28;20052;-72
2023/08/05 07:18:02;;;;;;;4.55;1.95;;;17.90;87.00;;;;;;5032392;28;20504;-72
2023/08/05 07:20:28;;;;;;;4.60;2.00;;;18.00;88.30;;;;;;5029403;28;20081;-71
2023/08/05 07:22:53;;;;;;;3.72;1.70;;;18.00;87.70;;;;;;5036942;28;20029;-73
2023/08/05 07:25:19;;;;;;;3.38;1.90;;;18.00;87.00;;;;;;5025177;28;20088;-73
2023/08/05 07:27:44;;;;;;;5.03;1.98;;;18.00;87.00;;;;;;5029584;28;20071;-72
2023/08/05 07:30:10;;;;;;;4.65;1.90;;;18.00;86.00;;;;;;5042230;28;20052;-70
2023/08/05 07:32:36;;;;;;;6.18;1.73;;;17.90;87.00;;;;;;5039126;28;21221;-71
2023/08/05 07:35:03;;;;;;;4.72;1.90;;;18.10;86.10;;;;;;5044621;28;20598;-71
2023/08/05 07:37:30;;;;;;;4.10;1.92;;;18.10;85.70;;;;;;5032679;28;20099;-73
2023/08/05 07:39:57;;;;;;;3.20;1.88;;;18.10;85.40;;;;;;5026693;28;20073;-72
2023/08/05 07:42:25;;;;;;;3.78;1.85;;;18.20;85.30;;;;;;5017052;28;20163;-70
2023/08/05 07:44:52;;;;;;;3.72;1.75;;;18.20;85.30;;;;;;5027927;28;20045;-73
2023/08/05 07:47:18;;;;;;;3.63;1.92;;;18.20;85.70;;;;;;5028451;28;20041;-70
2023/08/05 07:49:44;;;;;;;3.42;2.05;;;18.10;85.70;;;;;;5029634;28;20048;-71
2023/08/05 07:52:10;;;;;;;3.63;2.00;;;18.10;85.30;;;;;;5043352;28;20119;-73
2023/08/05 07:54:35;;;;;;;5.43;2.28;;;18.20;86.10;;;;;;5047917;28;20084;-71
2023/08/05 07:57:01;;;;;;;5.32;2.17;;;18.60;86.30;;;;;;5037921;28;20042;-72
2023/08/05 07:59:27;;;;;;;5.00;2.10;;;19.00;85.80;;;;;;5029795;28;20042;-71
2023/08/05 08:01:55;;;;;;;6.88;2.30;;;19.00;84.80;;;;;;5027787;28;20403;-72
2023/08/05 08:04:20;;;;;;;4.78;1.73;;;18.80;83.30;;;;;;5047446;28;20115;-72
2023/08/05 08:06:47;;;;;;;3.17;1.80;;;18.90;84.40;;;;;;5031380;28;20128;-73
2023/08/05 08:09:13;;;;;;;5.63;1.88;;;18.80;83.50;;;;;;5062831;28;20045;-72
2023/08/05 08:11:40;;;;;;;5.30;2.13;;;19.20;83.80;;;;;;5049277;28;20547;-70
2023/08/05 08:14:05;;;;;;;3.95;1.90;;;19.50;83.50;;;;;;5045926;28;20040;-72
2023/08/05 08:16:31;;;;;;;3.05;1.83;;;19.60;82.70;;;;;;5033173;28;20042;-71
2023/08/05 08:18:57;;;;;;;3.22;1.83;;;19.60;81.50;;;;;;5048592;28;20087;-71
2023/08/05 08:21:23;;;;;;;4.53;2.05;;;19.20;79.80;;;;;;5040096;28;20073;-70
2023/08/05 08:23:48;;;;;;;4.47;1.83;;;19.40;78.30;;;;;;5032133;28;20580;-71
2023/08/05 08:26:14;;;;;;;3.65;2.00;;;19.20;77.30;;;;;;5029463;28;20103;-71
2023/08/05 08:28:39;;;;;;;3.80;1.80;;;19.00;78.20;;;;;;5029871;28;20074;-70
2023/08/05 08:31:05;;;;;;;3.55;1.88;;;19.30;78.50;;;;;;5053052;28;20494;-71
2023/08/05 08:33:30;;;;;;;3.35;1.92;;;19.20;78.30;;;;;;5043735;28;20466;-71
2023/08/05 08:35:56;;;;;;;4.78;2.30;;;18.90;78.00;;;;;;5056571;28;20033;-72
2023/08/05 08:38:25;;;;;;;5.30;1.67;;;19.00;78.70;;;;;;5035487;28;20049;-72
2023/08/05 08:40:52;;;;;;;4.05;1.73;;;19.10;78.40;;;;;;5046574;28;20129;-70
2023/08/05 08:43:19;;;;;;;3.25;1.90;;;19.20;78.00;;;;;;5028331;28;20050;-71
2023/08/05 08:45:51;;;;;;;5.32;1.75;;;19.50;78.00;;;;;;5048208;28;20037;-71
2023/08/05 08:48:17;;;;;;;3.78;1.77;;;19.50;76.20;;;;;;5042207;28;20045;-74
2023/08/05 08:50:44;;;;;;;2.97;1.80;;;19.60;77.10;;;;;;5036055;28;20496;-71
2023/08/05 08:53:14;;;;;;;3.80;2.13;;;20.20;76.60;;;;;;5041613;28;20472;-69
2023/08/05 08:55:43;;;;;;;3.10;1.77;;;20.60;75.10;;;;;;5038386;28;20041;-71
2023/08/05 08:58:10;;;;;;;3.42;1.90;;;20.50;68.80;;;;;;5032949;28;20527;-73
2023/08/05 09:00:36;;;;;;;2.25;1.67;;;20.90;73.80;;;;;;5033456;28;20037;-73
2023/08/05 09:03:04;;;;;;;3.65;1.85;;;21.00;72.80;;;;;;5040488;28;20529;-71
2023/08/05 09:05:46;;;;;;;4.38;1.90;;;21.10;69.80;;;;;;5051478;28;20060;-70
2023/08/05 09:08:12;;;;;;;1.98;1.27;;;21.70;68.30;;;;;;5051678;28;20307;-72
2023/08/05 09:10:38;;;;;;;3.03;1.60;;;21.70;68.10;;;;;;5046995;28;20048;-73
2023/08/05 09:13:05;;;;;;;3.28;1.73;;;21.50;67.70;;;;;;5048444;28;20040;-72
2023/08/05 09:15:37;;;;;;;3.65;1.92;;;21.20;67.80;;;;;;5049283;28;20037;-72
2023/08/05 09:18:05;;;;;;;2.63;1.50;;;21.00;67.50;;;;;;5066452;28;20088;-72
2023/08/05 09:20:31;;;;;;;3.22;1.77;;;20.90;66.90;;;;;;5015960;28;20099;-72
2023/08/05 09:23:01;;;;;;;2.58;1.48;;;21.50;67.90;;;;;;5036158;28;20052;-73
2023/08/05 09:25:29;;;;;;;4.03;1.40;;;21.80;66.60;;;;;;5021972;28;20100;-74
2023/08/05 09:27:56;;;;;;;2.10;1.52;;;21.80;64.40;;;;;;5050129;28;20472;-71
2023/08/05 09:30:22;;;;;;;3.50;1.63;;;22.60;65.80;;;;;;5051379;28;20089;-73
2023/08/05 09:32:48;;;;;;;2.45;1.50;;;22.80;64.60;;;;;;5042846;28;20041;-73
2023/08/05 09:35:17;;;;;;;2.63;1.33;;;22.30;63.40;;;;;;5036554;28;20033;-74
2023/08/05 09:37:51;;;;;;;2.28;1.30;;;22.70;60.90;;;;;;5028848;28;20094;-72
2023/08/05 09:40:17;;;;;;;2.33;1.73;;;22.40;62.80;;;;;;5029066;28;20127;-72
2023/08/05 09:42:51;;;;;;;4.22;1.50;;;22.60;62.50;;;;;;5051167;28;20044;-71
2023/08/05 09:45:20;;;;;;;4.10;1.58;;;22.40;58.20;;;;;;5046477;28;20052;-70
2023/08/05 09:47:49;;;;;;;6.38;1.80;;;22.50;61.00;;;;;;5030154;28;20622;-73
2023/08/05 09:50:15;;;;;;;6.90;1.75;;;21.90;63.00;;;;;;5040611;28;20078;-71
2023/08/05 09:52:43;;;;;;;2.67;1.70;;;21.90;61.90;;;;;;5032161;28;20484;-70
2023/08/05 09:55:14;;;;;;;2.55;1.60;;;21.70;62.20;;;;;;5042847;28;20452;-69
2023/08/05 09:57:43;;;;;;;5.65;2.03;;;21.50;62.70;;;;;;5048601;28;20028;-71
2023/08/05 10:00:11;;;;;;;1.80;1.42;;;22.10;61.70;;;;;;5050715;28;20163;-71
2023/08/05 10:02:40;;;;;;;4.00;1.70;;;22.10;61.20;;;;;;5031995;28;20135;-76
2023/08/05 10:05:06;;;;;;;3.35;2.00;;;21.80;60.00;;;;;;5044805;28;20128;-70
2023/08/05 10:07:32;;;;;;;3.35;1.50;;;21.60;61.40;;;;;;5031113;28;20060;-73
2023/08/05 10:10:00;;;;;;;3.83;1.55;;;21.50;61.70;;;;;;5051342;28;20044;-68
2023/08/05 10:12:30;;;;;;;2.88;1.70;;;21.20;62.10;;;;;;5045090;28;20045;-70
2023/08/05 10:14:58;;;;;;;2.65;1.52;;;21.10;62.70;;;;;;5041297;28;20052;-72
2023/08/05 10:17:24;;;;;;;4.82;1.92;;;20.90;63.50;;;;;;5060367;28;20492;-73
2023/08/05 10:19:50;;;;;;;3.75;1.80;;;20.80;64.20;;;;;;5039153;28;20040;-71
2023/08/05 10:22:24;;;;;;;3.90;1.65;;;20.70;64.90;;;;;;5042551;28;20449;-73
2023/08/05 10:24:54;;;;;;;3.60;2.08;;;21.00;64.60;;;;;;5033665;28;20037;-69
2023/08/05 10:27:36;;;;;;;2.78;1.70;;;21.00;64.30;;;;;;5039887;28;20340;-72
2023/08/05 10:30:10;;;;;;;3.20;1.95;;;21.60;65.10;;;;;;5050988;28;20039;-72
2023/08/05 10:32:52;;;;;;;6.60;2.00;;;21.70;63.70;;;;;;5062134;28;20102;-71
2023/08/05 10:35:59;;;;;;;3.30;1.85;;;21.70;64.20;;;;;;5048573;28;20033;-73
2023/08/05 10:38:25;;;;;;;4.32;1.60;;;21.80;63.50;;;;;;5029013;28;20802;-72
2023/08/05 10:41:03;;;;;;;3.95;1.77;;;21.70;64.40;;;;;;5029657;28;20045;-71
2023/08/05 10:43:31;;;;;;;2.90;1.55;;;21.70;63.40;;;;;;5045006;28;20072;-70
2023/08/05 10:46:01;;;;;;;3.83;2.10;;;21.70;63.60;;;;;;5048772;28;20036;-73
2023/08/05 10:48:47;;;;;;;4.30;1.93;;;21.80;64.40;;;;;;5053299;28;20869;-72
2023/08/05 10:51:12;;;;;;;3.47;1.55;;;21.60;63.70;;;;;;5040018;28;20356;-73
2023/08/05 10:53:38;;;;;;;4.57;1.70;;;21.50;62.40;;;;;;5040445;28;20053;-74
2023/08/05 10:56:12;;;;;;;3.10;1.60;;;21.30;62.30;;;;;;5055736;28;20108;-71
2023/08/05 10:58:45;;;;;;;2.83;1.30;;;21.40;63.50;;;;;;5030612;28;20111;-71
2023/08/05 11:01:11;;;;;;;3.42;1.50;;;21.60;63.50;;;;;;5044565;28;20044;-74
2023/08/05 11:03:47;;;;;;;3.72;1.40;;;21.50;62.10;;;;;;5033935;28;20029;-72
2023/08/05 11:06:14;;;;;;;2.85;1.70;;;21.50;59.80;;;;;;5049589;28;20103;-72
2023/08/05 11:08:41;;;;;;;1.60;1.25;;;21.50;61.60;;;;;;5027846;28;20120;-70
2023/08/05 11:11:15;;;;;;;3.33;1.58;;;21.40;61.10;;;;;;5041640;28;20044;-73
2023/08/05 11:13:41;;;;;;;3.05;1.60;;;21.30;61.40;;;;;;5047159;28;20052;-70
2023/08/05 11:16:09;;;;;;;2.22;1.70;;;21.20;61.60;;;;;;5038313;28;20037;-70
2023/08/05 11:18:36;;;;;;;2.33;1.60;;;21.10;62.00;;;;;;5047388;28;20047;-71
2023/08/05 11:21:04;;;;;;;3.03;1.42;;;21.30;62.00;;;;;;5036780;28;20037;-71
2023/08/05 11:23:30;;;;;;;3.85;1.75;;;21.30;62.40;;;;;;5047505;28;20036;-70
2023/08/05 11:26:02;;;;;;;2.20;1.70;;;21.50;61.90;;;;;;5046583;28;20047;-71
2023/08/05 11:28:28;;;;;;;3.60;1.70;;;21.60;61.90;;;;;;5040890;28;20445;-70
2023/08/05 11:30:54;;;;;;;2.85;1.75;;;21.80;61.90;;;;;;5050868;28;20110;-70
2023/08/05 11:33:21;;;;;;;2.88;2.20;;;22.00;61.90;;;;;;5047632;28;20036;-70
2023/08/05 11:35:48;;;;;;;3.42;1.67;;;22.10;62.10;;;;;;5034318;28;20045;-71
2023/08/05 11:38:18;;;;;;;3.33;2.00;;;22.20;61.80;;;;;;5042316;28;20190;-68
2023/08/05 11:40:46;;;;;;;3.53;2.03;;;22.20;61.20;;;;;;5017320;28;20367;-73
2023/08/05 11:43:21;;;;;;;4.45;2.20;;;22.30;61.20;;;;;;5040650;28;20443;-69
2023/08/05 11:45:48;;;;;;;4.78;2.78;;;22.10;61.30;;;;;;5046241;28;20120;-70
2023/08/05 11:48:18;;;;;;;2.95;2.50;;;21.90;61.70;;;;;;5030537;28;20034;-70
2023/08/05 11:50:44;;;;;;;3.30;2.83;;;21.80;62.00;;;;;;5042362;28;20110;-70
2023/08/05 11:53:12;;;;;;;6.47;3.30;;;21.90;62.00;;;;;;5045270;28;20091;-70
2023/08/05 11:55:39;;;;;;;3.65;2.90;;;22.00;61.80;;;;;;5046269;28;20057;-71
2023/08/05 11:58:06;;;;;;;4.20;2.70;;;22.20;61.90;;;;;;5045062;28;20032;-71
2023/08/05 12:00:32;;;;;;;3.72;2.60;;;22.30;61.70;;;;;;5044062;28;20572;-71
2023/08/05 12:03:01;;;;;;;4.00;2.70;;;22.40;61.40;;;;;;5043513;28;20075;-69
2023/08/05 12:05:26;;;;;;;3.10;2.80;;;22.50;61.20;;;;;;5057433;28;20068;-73
2023/08/05 12:07:52;;;;;;;6.78;4.72;;;22.50;61.60;;;;;;5030385;28;20068;-69
2023/08/05 12:10:19;;;;;;;5.70;4.47;;;22.40;62.10;;;;;;5033212;28;20102;-72
2023/08/05 12:12:49;;;;;;;5.68;4.10;;;22.40;61.50;;;;;;5041448;28;20041;-71
2023/08/05 12:15:19;;;;;;;8.70;4.47;;;22.20;62.70;;;;;;5038174;28;20116;-70
2023/08/05 12:17:47;;;;;;;8.95;5.85;;;22.00;63.20;;;;;;5033999;28;20040;-72
2023/08/05 12:20:17;;;;;;;10.00;6.13;;;21.90;62.70;;;;;;5039598;28;20053;-71
2023/08/05 12:22:42;;;;;;;6.75;5.63;;;21.60;63.50;;;;;;5050808;28;20416;-70
2023/08/05 12:25:08;;;;;;;7.75;6.00;;;21.70;63.20;;;;;;5048262;28;20096;-70
2023/08/05 12:27:34;;;;;;;8.95;5.70;;;21.70;63.20;;;;;;5048422;28;20483;-70
2023/08/05 12:29:59;;;;;;;7.43;5.80;;;21.50;63.60;;;;;;5068762;28;20036;-70
2023/08/05 12:32:25;;;;;;;8.05;5.70;;;21.40;63.90;;;;;;5039792;28;20033;-69
2023/08/05 12:34:51;;;;;;;9.95;6.68;;;21.20;64.40;;;;;;5060148;28;20063;-69
2023/08/05 12:37:16;;;;;;;9.43;6.30;;;21.10;64.80;;;;;;5043403;28;20151;-71
2023/08/05 12:39:42;;;;;;;7.38;6.18;;;21.10;65.10;;;;;;5023782;28;20480;-69
2023/08/05 12:42:09;;;;;;;7.78;5.47;;;21.10;65.10;;;;;;5034684;28;20124;-72